Time;durP1;ratioP1;P1;durP2;ratioP2;P2;SDS_P1;SDS_P2;PMS_P1;PMS_P2;Temp;Humidity;BMP_temperature;BMP_pressure;BME280_temperature;BME280_humidity;BME280_pressure;Samples;Min_cycle;Max_cycle;Signal;HPM_P1;HPM_P2
2023/04/07 00:00:39;;;;;;;;;;;;;;;18.53;38.58;95649.31;10477600;28;2861;-63
2023/04/07 00:05:39;;;;;;;;;;;;;;;18.52;38.40;95639.09;10458485;28;3272;-63
2023/04/07 00:10:40;;;;;;;;;;;;;;;18.51;38.34;95640.91;10466467;28;3453;-63
2023/04/07 00:15:50;;;;;;;;;;;;;;;18.50;38.23;95638.56;10468301;28;2851;-63
2023/04/07 00:20:52;;;;;;;;;;;;;;;18.47;38.34;95636.44;10468657;28;3272;-64
2023/04/07 00:25:53;;;;;;;;;;;;;;;18.45;38.31;95638.56;10464668;28;2856;-64
2023/04/07 00:30:54;;;;;;;;;;;;;;;18.44;38.17;95629.13;10475647;28;2253;-64
2023/04/07 00:35:57;;;;;;;;;;;;;;;18.43;38.08;95643.25;10477686;28;2274;-64
2023/04/07 00:40:58;;;;;;;;;;;;;;;18.41;37.96;95635.66;10472442;28;2860;-64
2023/04/07 00:46:00;;;;;;;;;;;;;;;18.40;37.95;95625.41;10474763;28;3216;-64
2023/04/07 00:51:01;;;;;;;;;;;;;;;18.38;37.94;95622.28;10459133;28;2889;-64
2023/04/07 00:56:01;;;;;;;;;;;;;;;18.36;37.92;95622.50;10485289;28;2443;-64
2023/04/07 01:01:05;;;;;;;;;;;;;;;18.36;37.81;95613.88;10487680;28;2302;-64
2023/04/07 01:06:05;;;;;;;;;;;;;;;18.34;37.79;95615.97;10481599;28;2955;-64
2023/04/07 01:11:09;;;;;;;;;;;;;;;18.33;37.90;95604.69;10469742;28;3237;-64
2023/04/07 01:16:10;;;;;;;;;;;;;;;18.32;37.69;95603.09;10482398;28;2330;-64
2023/04/07 01:21:15;;;;;;;;;;;;;;;18.30;37.62;95599.94;10486172;28;3272;-64
2023/04/07 01:26:18;;;;;;;;;;;;;;;18.29;37.60;95606.25;10485927;28;3380;-63
2023/04/07 01:31:18;;;;;;;;;;;;;;;18.29;37.52;95608.09;10479183;28;2865;-64
2023/04/07 01:36:18;;;;;;;;;;;;;;;18.26;37.53;95601.50;10453041;28;3443;-64
2023/04/07 01:41:19;;;;;;;;;;;;;;;18.25;37.44;95607.81;10482014;28;2883;-64
2023/04/07 01:46:20;;;;;;;;;;;;;;;18.25;37.38;95607.03;10476048;28;2876;-64
2023/04/07 01:51:21;;;;;;;;;;;;;;;18.23;37.34;95598.63;10485574;28;3268;-64
2023/04/07 01:56:22;;;;;;;;;;;;;;;18.21;37.32;95598.91;10470166;28;3279;-64
2023/04/07 02:01:22;;;;;;;;;;;;;;;18.20;37.17;95593.91;10479177;28;3363;-65
2023/04/07 02:06:26;;;;;;;;;;;;;;;18.19;37.24;95597.59;10468213;28;3421;-64
2023/04/07 02:11:27;;;;;;;;;;;;;;;18.18;37.11;95594.16;10487628;28;3257;-64
2023/04/07 02:16:31;;;;;;;;;;;;;;;18.17;37.19;95591.81;10453067;28;2869;-64
2023/04/07 02:21:32;;;;;;;;;;;;;;;18.15;37.07;95588.66;10467215;28;2912;-65
2023/04/07 02:26:34;;;;;;;;;;;;;;;18.15;36.92;95591.28;10448689;28;2837;-63
2023/04/07 02:31:35;;;;;;;;;;;;;;;18.13;37.02;95593.38;10476915;28;3297;-64
2023/04/07 02:36:36;;;;;;;;;;;;;;;18.11;36.98;95585.00;10480037;28;2399;-62
2023/04/07 02:41:37;;;;;;;;;;;;;;;18.11;37.01;95588.41;10483527;28;2853;-62
2023/04/07 02:46:37;;;;;;;;;;;;;;;18.09;36.96;95584.47;10474403;28;3300;-62
2023/04/07 02:51:37;;;;;;;;;;;;;;;18.09;36.73;95579.22;10472780;28;2319;-64
2023/04/07 02:56:37;;;;;;;;;;;;;;;18.07;36.93;95586.56;10484776;28;2357;-65
2023/04/07 03:01:39;;;;;;;;;;;;;;;18.06;36.76;95579.72;10482826;28;3265;-63
2023/04/07 03:06:40;;;;;;;;;;;;;;;18.05;36.68;95586.84;10477156;28;3230;-64
2023/04/07 03:11:43;;;;;;;;;;;;;;;18.05;36.66;95584.22;10474393;28;2975;-64
2023/04/07 03:16:43;;;;;;;;;;;;;;;18.04;36.68;95576.59;10478205;28;2260;-63
2023/04/07 03:21:44;;;;;;;;;;;;;;;18.03;36.54;95575.81;10480114;28;2972;-64
2023/04/07 03:26:44;;;;;;;;;;;;;;;18.00;36.55;95573.69;10484213;28;3479;-64
2023/04/07 03:31:55;;;;;;;;;;;;;;;18.00;36.48;95572.91;10481158;28;2809;-64
2023/04/07 03:36:55;;;;;;;;;;;;;;;17.99;36.58;95568.72;10479941;28;2849;-64
2023/04/07 03:41:56;;;;;;;;;;;;;;;17.98;36.50;95565.31;10475028;28;3281;-64
2023/04/07 03:46:57;;;;;;;;;;;;;;;17.97;36.47;95558.47;10483027;28;3327;-64
2023/04/07 03:51:57;;;;;;;;;;;;;;;17.96;36.46;95567.41;10464736;28;3255;-64
2023/04/07 03:56:58;;;;;;;;;;;;;;;17.96;36.48;95556.13;10479783;28;3364;-64
2023/04/07 04:01:58;;;;;;;;;;;;;;;17.95;36.41;95562.44;10478695;28;2325;-63
2023/04/07 04:06:59;;;;;;;;;;;;;;;17.94;36.38;95553.75;10473624;28;3313;-63
2023/04/07 04:12:00;;;;;;;;;;;;;;;17.97;36.24;95552.47;10457893;28;2852;-64
2023/04/07 04:17:00;;;;;;;;;;;;;;;18.04;36.08;95552.97;10475781;28;3332;-63
2023/04/07 04:22:01;;;;;;;;;;;;;;;18.12;35.96;95545.38;10489711;28;2897;-64
2023/04/07 04:27:02;;;;;;;;;;;;;;;18.25;35.81;95551.94;10481838;28;3610;-63
2023/04/07 04:32:02;;;;;;;;;;;;;;;18.36;35.60;95556.13;10473640;28;2861;-63
2023/04/07 04:37:03;;;;;;;;;;;;;;;18.46;35.77;95556.94;10481420;28;2456;-63
2023/04/07 04:42:03;;;;;;;;;;;;;;;18.55;35.34;95544.06;10471323;28;3311;-64
2023/04/07 04:47:04;;;;;;;;;;;;;;;18.66;35.19;95545.63;10456415;28;2998;-63
2023/04/07 04:52:04;;;;;;;;;;;;;;;18.73;35.15;95540.88;10487983;28;2848;-63
2023/04/07 04:57:05;;;;;;;;;;;;;;;18.83;34.93;95545.31;10485152;28;2448;-63
2023/04/07 05:02:07;;;;;;;;;;;;;;;18.90;34.83;95545.84;10487351;28;3268;-64
2023/04/07 05:07:07;;;;;;;;;;;;;;;18.94;34.73;95546.88;10487149;28;2860;-66
2023/04/07 05:12:08;;;;;;;;;;;;;;;18.96;34.75;95545.53;10483822;28;2971;-63
2023/04/07 05:17:08;;;;;;;;;;;;;;;18.99;34.72;95539.75;10487483;28;2334;-63
2023/04/07 05:22:08;;;;;;;;;;;;;;;19.00;34.72;95543.94;10479305;28;2865;-61
2023/04/07 05:27:09;;;;;;;;;;;;;;;19.02;34.50;95539.19;10482463;28;2613;-62
2023/04/07 05:32:11;;;;;;;;;;;;;;;19.02;34.62;95539.19;10481219;28;3233;-62
2023/04/07 05:37:11;;;;;;;;;;;;;;;19.02;34.77;95544.44;10471632;28;2305;-62
2023/04/07 05:42:12;;;;;;;;;;;;;;;19.03;34.85;95543.41;10467543;28;3292;-61
2023/04/07 05:47:13;;;;;;;;;;;;;;;19.04;35.53;95544.97;10452135;28;3198;-61
2023/04/07 05:52:13;;;;;;;;;;;;;;;19.02;35.72;95539.19;10468650;28;2813;-64
2023/04/07 05:57:15;;;;;;;;;;;;;;;19.03;36.13;95537.38;10474144;28;3281;-59
2023/04/07 06:02:15;;;;;;;;;;;;;;;19.00;36.11;95533.44;10475885;28;2393;-59
2023/04/07 06:07:16;;;;;;;;;;;;;;;18.96;36.50;95527.13;10484016;28;1511;-62
2023/04/07 06:12:17;;;;;;;;;;;;;;;18.95;36.48;95530.84;10493322;28;1384;-66
2023/04/07 06:17:17;;;;;;;;;;;;;;;18.93;36.78;95526.91;10495358;28;1367;-58
2023/04/07 06:25:20;;;;;;;;;;;;;;;18.90;37.13;95522.19;10482913;27;1697;-58
2023/04/07 06:30:21;;;;;;;;;;;;;;;18.85;37.06;95516.94;10504536;28;1452;-59
2023/04/07 06:35:22;;;;;;;;;;;;;;;18.80;36.92;95501.19;10490733;28;1686;-61
2023/04/07 06:40:22;;;;;;;;;;;;;;;18.75;36.87;95502.03;10518984;28;1973;-62
2023/04/07 06:45:22;;;;;;;;;;;;;;;18.71;36.58;95508.88;10524629;28;1139;-59
2023/04/07 06:50:22;;;;;;;;;;;;;;;18.65;36.30;95502.03;10517423;28;1451;-61
2023/04/07 06:55:24;;;;;;;;;;;;;;;18.59;36.31;95484.72;10527935;28;1221;-62
2023/04/07 07:00:27;;;;;;;;;;;;;;;18.54;36.09;95496.03;10501541;28;1914;-59
2023/04/07 07:05:29;;;;;;;;;;;;;;;18.51;36.06;95496.56;10510572;28;938;-60
2023/04/07 07:10:29;;;;;;;;;;;;;;;18.46;35.98;95488.72;10525867;28;1456;-59
2023/04/07 07:15:30;;;;;;;;;;;;;;;18.43;35.96;95498.91;10561027;28;1173;-60
2023/04/07 07:20:31;;;;;;;;;;;;;;;18.39;35.87;95497.88;10514950;28;1971;-61
2023/04/07 07:25:32;;;;;;;;;;;;;;;18.38;35.70;95502.31;10544992;28;2001;-61
2023/04/07 07:30:32;;;;;;;;;;;;;;;18.32;35.82;95498.13;10543296;28;1456;-61
2023/04/07 07:35:33;;;;;;;;;;;;;;;18.33;35.61;95504.16;10547133;28;1150;-61
2023/04/07 07:40:33;;;;;;;;;;;;;;;18.29;35.57;95498.69;10522361;28;1909;-61
2023/04/07 07:45:34;;;;;;;;;;;;;;;18.26;35.52;95499.19;10539330;28;1162;-61
2023/04/07 07:50:34;;;;;;;;;;;;;;;18.25;35.55;95507.34;10536134;28;1483;-61
2023/04/07 07:55:35;;;;;;;;;;;;;;;18.22;35.42;95519.13;10521313;28;1155;-61
2023/04/07 08:00:35;;;;;;;;;;;;;;;18.20;35.32;95509.94;10525002;28;1972;-60
2023/04/07 08:05:45;;;;;;;;;;;;;;;18.18;35.31;95507.59;10538510;28;1174;-61
2023/04/07 08:10:47;;;;;;;;;;;;;;;18.17;35.16;95510.50;10521468;28;1468;-61
2023/04/07 08:15:48;;;;;;;;;;;;;;;18.13;35.12;95507.63;10538016;28;1123;-61
2023/04/07 08:20:50;;;;;;;;;;;;;;;18.12;35.08;95500.00;10506248;28;1902;-60
2023/04/07 08:25:51;;;;;;;;;;;;;;;18.10;35.00;95504.72;10524234;28;1417;-61
2023/04/07 08:30:52;;;;;;;;;;;;;;;18.07;34.93;95500.00;10538121;28;1091;-60
2023/04/07 08:35:53;;;;;;;;;;;;;;;18.07;35.00;95490.31;10520835;28;1584;-61
2023/04/07 08:40:54;;;;;;;;;;;;;;;18.05;34.91;95497.66;10533126;28;1948;-61
2023/04/07 08:46:04;;;;;;;;;;;;;;;18.03;34.84;95497.13;10519595;28;1146;-61
2023/04/07 08:51:07;;;;;;;;;;;;;;;18.03;34.88;95488.47;10514621;28;1456;-61
2023/04/07 08:56:07;;;;;;;;;;;;;;;18.00;34.78;95487.16;10530119;28;1444;-61
2023/04/07 09:01:18;;;;;;;;;;;;;;;17.99;34.72;95497.91;10513463;28;1909;-61
2023/04/07 09:06:18;;;;;;;;;;;;;;;17.98;34.62;95493.72;10504198;28;1441;-61
2023/04/07 09:11:19;;;;;;;;;;;;;;;17.97;34.86;95492.16;10530725;28;1476;-61
2023/04/07 09:16:32;;;;;;;;;;;;;;;17.96;34.71;95488.72;10537325;28;1016;-61
2023/04/07 09:21:48;;;;;;;;;;;;;;;17.95;34.71;95492.38;10510440;28;1957;-61
2023/04/07 09:26:49;;;;;;;;;;;;;;;17.95;34.69;95489.00;10503925;28;1531;-60
2023/04/07 09:31:59;;;;;;;;;;;;;;;17.94;34.71;95482.16;10537354;28;1102;-61
2023/04/07 09:37:00;;;;;;;;;;;;;;;17.93;34.72;95483.22;10527063;28;1547;-61
2023/04/07 09:42:05;;;;;;;;;;;;;;;17.93;34.63;95478.75;10532184;28;1965;-61
2023/04/07 09:47:06;;;;;;;;;;;;;;;17.92;34.66;95479.03;10541306;28;1440;-60
2023/04/07 09:52:07;;;;;;;;;;;;;;;17.91;34.71;95464.34;10516652;28;1195;-60
2023/04/07 09:57:08;;;;;;;;;;;;;;;17.91;34.67;95467.75;10526533;28;1535;-60
2023/04/07 10:02:13;;;;;;;;;;;;;;;17.92;34.73;95455.41;10515034;28;1967;-60
2023/04/07 10:07:14;;;;;;;;;;;;;;;17.90;34.83;95455.69;10534702;28;1095;-60
2023/04/07 10:12:14;;;;;;;;;;;;;;;17.91;34.81;95461.72;10520033;28;1433;-60
2023/04/07 10:17:18;;;;;;;;;;;;;;;17.91;34.88;95451.25;10506464;28;1460;-61
2023/04/07 10:22:18;;;;;;;;;;;;;;;17.90;34.83;95458.31;10522967;28;1902;-60
2023/04/07 10:27:29;;;;;;;;;;;;;;;17.89;35.04;95457.53;10516342;28;1500;-60
2023/04/07 10:32:30;;;;;;;;;;;;;;;17.86;34.91;95452.81;10516490;28;1164;-60
2023/04/07 10:37:33;;;;;;;;;;;;;;;17.89;34.86;95448.88;10527210;28;1440;-60
2023/04/07 10:42:36;;;;;;;;;;;;;;;17.90;34.93;95447.81;10527759;28;1975;-60
2023/04/07 10:48:03;;;;;;;;;;;;;;;17.91;35.04;95451.25;10533961;28;1095;-60
2023/04/07 10:53:06;;;;;;;;;;;;;;;17.93;34.87;95446.53;10507428;28;1682;-61
2023/04/07 10:58:24;;;;;;;;;;;;;;;17.93;34.82;95443.91;10525887;28;1448;-60
2023/04/07 11:03:25;;;;;;;;;;;;;;;17.94;34.88;95443.63;10514015;28;1898;-60
2023/04/07 11:08:35;;;;;;;;;;;;;;;17.93;35.00;95441.28;10518564;28;1350;-60
2023/04/07 11:13:41;;;;;;;;;;;;;;;17.95;35.03;95439.19;10526404;28;1651;-60
2023/04/07 11:18:42;;;;;;;;;;;;;;;17.95;35.22;95439.94;10531650;28;1400;-60
2023/04/07 11:23:42;;;;;;;;;;;;;;;17.93;35.17;95433.41;10534229;28;1906;-60
2023/04/07 11:28:46;;;;;;;;;;;;;;;17.91;35.27;95422.41;10529989;28;1484;-60
2023/04/07 11:33:50;;;;;;;;;;;;;;;17.90;35.20;95426.84;10522756;28;1169;-60
2023/04/07 11:38:52;;;;;;;;;;;;;;;17.92;35.08;95423.97;10527365;28;1669;-60
2023/04/07 11:44:08;;;;;;;;;;;;;;;17.91;35.19;95427.66;10526275;28;2808;-60
2023/04/07 11:49:12;;;;;;;;;;;;;;;17.91;35.17;95422.41;10532487;28;1460;-60
2023/04/07 11:54:14;;;;;;;;;;;;;;;17.92;35.08;95422.13;10539276;28;1091;-60
2023/04/07 11:59:24;;;;;;;;;;;;;;;17.94;35.10;95414.00;10514999;28;1487;-61
2023/04/07 12:04:24;;;;;;;;;;;;;;;17.93;35.14;95415.81;10538321;28;1976;-60
2023/04/07 12:09:33;;;;;;;;;;;;;;;17.92;35.11;95419.50;10512896;28;1471;-60
2023/04/07 12:14:34;;;;;;;;;;;;;;;17.92;35.24;95409.00;10524714;28;1127;-60
2023/04/07 12:19:38;;;;;;;;;;;;;;;17.90;35.28;95411.13;10528568;28;1524;-60
2023/04/07 12:24:39;;;;;;;;;;;;;;;17.88;35.32;95407.97;10515386;28;1955;-59
2023/04/07 12:29:40;;;;;;;;;;;;;;;17.88;35.48;95416.63;10533802;28;1449;-60
2023/04/07 12:34:41;;;;;;;;;;;;;;;17.85;35.32;95417.16;10538646;28;1134;-60
2023/04/07 12:39:42;;;;;;;;;;;;;;;17.85;35.26;95417.16;10508578;28;1456;-60
2023/04/07 12:44:42;;;;;;;;;;;;;;;17.84;35.26;95412.97;10528440;28;1973;-60
2023/04/07 12:49:43;;;;;;;;;;;;;;;17.83;35.36;95410.59;10525445;28;1405;-59
2023/04/07 12:54:44;;;;;;;;;;;;;;;17.82;35.27;95415.06;10537039;28;1162;-60
2023/04/07 12:59:44;;;;;;;;;;;;;;;17.82;35.23;95414.28;10510104;28;1448;-60
2023/04/07 13:04:45;;;;;;;;;;;;;;;17.81;35.40;95416.09;10533950;28;1983;-60
2023/04/07 13:09:46;;;;;;;;;;;;;;;17.81;35.20;95416.09;10508160;28;1567;-61
2023/04/07 13:14:46;;;;;;;;;;;;;;;17.80;35.16;95416.38;10527762;28;1110;-60
2023/04/07 13:19:46;;;;;;;;;;;;;;;17.79;35.17;95414.78;10510019;28;1369;-60
2023/04/07 13:24:47;;;;;;;;;;;;;;;17.78;35.18;95421.88;10530366;28;1906;-60
2023/04/07 13:29:47;;;;;;;;;;;;;;;17.77;35.04;95419.50;10509850;28;1515;-60
2023/04/07 13:34:48;;;;;;;;;;;;;;;17.76;35.09;95416.09;10534312;28;1024;-60
2023/04/07 13:39:48;;;;;;;;;;;;;;;17.76;35.12;95412.72;10517821;28;1460;-60
2023/04/07 13:44:49;;;;;;;;;;;;;;;17.74;35.27;95407.72;10534715;28;1906;-59
2023/04/07 13:50:00;;;;;;;;;;;;;;;17.74;35.10;95407.72;10527872;28;1563;-60
2023/04/07 13:55:03;;;;;;;;;;;;;;;17.74;35.08;95410.31;10516896;28;1107;-59
2023/04/07 14:00:03;;;;;;;;;;;;;;;17.73;35.10;95403.53;10524741;28;1456;-59
2023/04/07 14:05:04;;;;;;;;;;;;;;;17.72;35.13;95407.19;10516260;28;1957;-60
2023/04/07 14:10:05;;;;;;;;;;;;;;;17.71;35.05;95403.00;10524593;28;1623;-60
2023/04/07 14:15:06;;;;;;;;;;;;;;;17.71;35.12;95407.47;10522936;28;1416;-60
2023/04/07 14:20:07;;;;;;;;;;;;;;;17.70;35.05;95411.91;10525924;28;1150;-59
2023/04/07 14:25:08;;;;;;;;;;;;;;;17.70;35.00;95406.66;10523065;28;1971;-60
2023/04/07 14:30:08;;;;;;;;;;;;;;;17.69;35.08;95410.34;10526028;28;1480;-60
2023/04/07 14:35:09;;;;;;;;;;;;;;;17.69;35.08;95406.94;10515115;28;1123;-60
2023/04/07 14:40:09;;;;;;;;;;;;;;;17.69;35.14;95407.72;10516669;28;1484;-60
2023/04/07 14:45:11;;;;;;;;;;;;;;;17.69;35.09;95409.56;10538244;28;1902;-60
2023/04/07 14:50:12;;;;;;;;;;;;;;;17.68;35.07;95410.63;10529319;28;1460;-59
2023/04/07 14:55:13;;;;;;;;;;;;;;;17.66;35.09;95413.47;10541417;28;1067;-60
2023/04/07 15:00:14;;;;;;;;;;;;;;;17.66;35.03;95418.72;10524289;28;1472;-59
2023/04/07 15:05:15;;;;;;;;;;;;;;;17.65;35.16;95419.78;10545366;28;1913;-60
2023/04/07 15:10:17;;;;;;;;;;;;;;;17.65;35.20;95417.16;10518024;28;1456;-59
2023/04/07 15:15:18;;;;;;;;;;;;;;;17.65;35.16;95429.47;10523731;28;1382;-60
2023/04/07 15:20:19;;;;;;;;;;;;;;;17.64;35.10;95427.91;10508220;28;1509;-61
2023/04/07 15:25:21;;;;;;;;;;;;;;;17.64;35.06;95423.44;10530943;28;1894;-59
2023/04/07 15:30:31;;;;;;;;;;;;;;;17.62;35.15;95425.53;10527461;28;1436;-60
2023/04/07 15:35:32;;;;;;;;;;;;;;;17.62;34.95;95436.03;10518835;28;1382;-59
2023/04/07 15:40:36;;;;;;;;;;;;;;;17.61;35.10;95436.28;10534283;28;1476;-60
2023/04/07 15:45:41;;;;;;;;;;;;;;;17.61;35.02;95436.28;10521191;28;1902;-59
2023/04/07 15:50:42;;;;;;;;;;;;;;;17.60;35.01;95426.84;10534407;28;1385;-59
2023/04/07 15:55:43;;;;;;;;;;;;;;;17.60;34.95;95430.25;10529610;28;1118;-59
2023/04/07 16:00:43;;;;;;;;;;;;;;;17.59;35.03;95447.03;10524127;28;1910;-60
2023/04/07 16:05:44;;;;;;;;;;;;;;;17.59;34.94;95443.63;10519907;28;1166;-59
2023/04/07 16:10:45;;;;;;;;;;;;;;;17.58;35.04;95445.47;10529175;28;1725;-59
2023/04/07 16:15:46;;;;;;;;;;;;;;;17.57;34.98;95443.91;10538302;28;1135;-59
2023/04/07 16:20:47;;;;;;;;;;;;;;;17.57;35.03;95453.59;10503532;28;1910;-59
2023/04/07 16:25:48;;;;;;;;;;;;;;;17.57;35.02;95449.16;10497278;28;1416;-59
2023/04/07 16:30:48;;;;;;;;;;;;;;;17.56;35.04;95452.78;10536932;28;1114;-59
2023/04/07 16:35:48;;;;;;;;;;;;;;;17.55;35.00;95461.72;10533719;28;1380;-59
2023/04/07 16:40:49;;;;;;;;;;;;;;;17.55;34.91;95464.34;10530659;28;1987;-59
2023/04/07 16:45:50;;;;;;;;;;;;;;;17.54;34.90;95467.19;10536450;28;1110;-59
2023/04/07 16:50:51;;;;;;;;;;;;;;;17.52;34.92;95472.72;10513659;28;1353;-59
2023/04/07 16:56:02;;;;;;;;;;;;;;;17.52;34.94;95471.91;10527609;28;1126;-59
2023/04/07 17:01:03;;;;;;;;;;;;;;;17.52;34.81;95477.16;10511346;28;1901;-59
2023/04/07 17:06:06;;;;;;;;;;;;;;;17.50;34.85;95480.03;10526477;28;1432;-59
2023/04/07 17:11:07;;;;;;;;;;;;;;;17.50;34.78;95490.53;10506102;28;1476;-59
2023/04/07 17:16:10;;;;;;;;;;;;;;;17.49;34.89;95491.59;10535483;28;1091;-59
2023/04/07 17:21:12;;;;;;;;;;;;;;;17.50;34.89;95500.22;10519921;28;1963;-59
2023/04/07 17:26:12;;;;;;;;;;;;;;;17.49;34.85;95493.38;10523283;28;1512;-59
2023/04/07 17:31:13;;;;;;;;;;;;;;;17.48;34.77;95495.22;10534906;28;1162;-59
2023/04/07 17:36:13;;;;;;;;;;;;;;;17.48;34.77;95503.06;10527127;28;1365;-59
2023/04/07 17:41:14;;;;;;;;;;;;;;;17.48;34.70;95510.13;10529212;28;1977;-59
2023/04/07 17:46:14;;;;;;;;;;;;;;;17.46;34.63;95518.28;10541972;28;1197;-59
2023/04/07 17:51:15;;;;;;;;;;;;;;;17.45;34.64;95519.34;10534567;28;1456;-59
2023/04/07 17:56:15;;;;;;;;;;;;;;;17.45;34.65;95524.56;10516995;28;1344;-59
2023/04/07 18:01:16;;;;;;;;;;;;;;;17.45;34.64;95529.81;10519238;28;1963;-59
2023/04/07 18:06:19;;;;;;;;;;;;;;;17.45;34.66;95537.66;10521003;28;1405;-59
2023/04/07 18:11:21;;;;;;;;;;;;;;;17.44;34.72;95538.69;10525342;28;1508;-58
2023/04/07 18:16:22;;;;;;;;;;;;;;;17.44;34.65;95543.16;10532849;28;1118;-59
2023/04/07 18:21:23;;;;;;;;;;;;;;;17.42;34.66;95556.50;10520164;28;1917;-59
2023/04/07 18:26:24;;;;;;;;;;;;;;;17.43;34.58;95557.31;10531993;28;1153;-59
2023/04/07 18:31:25;;;;;;;;;;;;;;;17.41;34.68;95562.03;10519437;28;1440;-59
2023/04/07 18:36:35;;;;;;;;;;;;;;;17.40;34.57;95569.09;10505174;28;1447;-59
2023/04/07 18:41:35;;;;;;;;;;;;;;;17.41;34.56;95575.91;10527907;28;1914;-59
2023/04/07 18:46:36;;;;;;;;;;;;;;;17.41;34.48;95580.38;10524932;28;1255;-59
2023/04/07 18:51:37;;;;;;;;;;;;;;;17.39;34.50;95580.63;10511568;28;1685;-59
2023/04/07 18:56:37;;;;;;;;;;;;;;;17.39;34.50;95588.50;10523661;28;1472;-59
2023/04/07 19:01:40;;;;;;;;;;;;;;;17.38;34.50;95592.13;10533252;28;1910;-59
2023/04/07 19:06:40;;;;;;;;;;;;;;;17.38;34.47;95601.81;10531027;28;1483;-59
2023/04/07 19:11:41;;;;;;;;;;;;;;;17.37;34.51;95611.50;10527841;28;1492;-59
2023/04/07 19:16:43;;;;;;;;;;;;;;;17.37;34.36;95608.88;10533091;28;1095;-59
2023/04/07 19:21:43;;;;;;;;;;;;;;;17.37;34.35;95611.50;10519929;28;1921;-59
2023/04/07 19:26:44;;;;;;;;;;;;;;;17.37;34.35;95610.75;10515109;28;1449;-59
2023/04/07 19:31:45;;;;;;;;;;;;;;;17.36;34.45;95620.44;10537043;28;1423;-59
2023/04/07 19:36:56;;;;;;;;;;;;;;;17.36;34.41;95619.63;10516228;28;1805;-59
2023/04/07 19:41:56;;;;;;;;;;;;;;;17.35;34.26;95618.84;10525278;28;1906;-59
2023/04/07 19:46:56;;;;;;;;;;;;;;;17.35;34.40;95634.56;10539120;28;1087;-59
2023/04/07 19:51:57;;;;;;;;;;;;;;;17.35;34.29;95626.69;10533209;28;1540;-59
2023/04/07 19:56:57;;;;;;;;;;;;;;;17.34;34.42;95627.75;10540385;28;1142;-59
2023/04/07 20:01:58;;;;;;;;;;;;;;;17.35;34.34;95641.66;10529171;28;1906;-59
2023/04/07 20:06:58;;;;;;;;;;;;;;;17.34;34.27;95634.81;10538604;28;1067;-59
2023/04/07 20:12:00;;;;;;;;;;;;;;;17.33;34.35;95634.03;10529318;28;1662;-59
2023/04/07 20:17:01;;;;;;;;;;;;;;;17.33;34.15;95638.50;10536034;28;1405;-59
2023/04/07 20:22:01;;;;;;;;;;;;;;;17.33;34.21;95634.03;10521187;28;1906;-59
2023/04/07 20:27:02;;;;;;;;;;;;;;;17.32;34.11;95642.16;10528175;28;1441;-59
2023/04/07 20:32:02;;;;;;;;;;;;;;;17.32;34.23;95648.19;10509266;28;1432;-59
2023/04/07 20:37:02;;;;;;;;;;;;;;;17.31;34.22;95649.22;10516185;28;2310;-59
2023/04/07 20:42:03;;;;;;;;;;;;;;;17.32;34.14;95644.75;10514291;28;1910;-59
2023/04/07 20:47:09;;;;;;;;;;;;;;;17.31;34.13;95643.22;10536578;28;1131;-59
2023/04/07 20:52:11;;;;;;;;;;;;;;;17.30;34.12;95647.66;10530623;28;1464;-58
2023/04/07 20:57:12;;;;;;;;;;;;;;;17.30;34.11;95652.88;10513408;28;1433;-58
2023/04/07 21:02:12;;;;;;;;;;;;;;;17.29;34.13;95643.44;10531615;28;1905;-58
2023/04/07 21:07:13;;;;;;;;;;;;;;;17.29;34.09;95646.06;10525955;28;1429;-60
2023/04/07 21:12:13;;;;;;;;;;;;;;;17.28;34.07;95649.75;10508091;28;1577;-58
2023/04/07 21:17:14;;;;;;;;;;;;;;;17.28;34.03;95660.22;10532206;28;1480;-58
2023/04/07 21:22:15;;;;;;;;;;;;;;;17.28;34.16;95652.34;10527287;28;1969;-60
2023/04/07 21:27:16;;;;;;;;;;;;;;;17.28;34.06;95660.22;10509656;28;1444;-59
2023/04/07 21:32:17;;;;;;;;;;;;;;;17.28;34.06;95659.41;10529224;28;1472;-60
2023/04/07 21:37:18;;;;;;;;;;;;;;;17.27;34.02;95658.63;10533844;28;1167;-60
2023/04/07 21:42:19;;;;;;;;;;;;;;;17.28;33.88;95656.81;10529751;28;1921;-59
2023/04/07 21:47:20;;;;;;;;;;;;;;;17.27;34.04;95657.84;10534529;28;1107;-60
2023/04/07 21:52:21;;;;;;;;;;;;;;;17.25;33.96;95658.09;10528248;28;1547;-59
2023/04/07 21:57:22;;;;;;;;;;;;;;;17.26;34.01;95659.69;10527322;28;1627;-59
2023/04/07 22:02:22;;;;;;;;;;;;;;;17.26;33.81;95664.13;10533316;28;1910;-60
2023/04/07 22:07:23;;;;;;;;;;;;;;;17.26;33.76;95666.75;10520429;28;1424;-60
2023/04/07 22:12:24;;;;;;;;;;;;;;;17.25;33.86;95660.72;10527704;28;1429;-59
2023/04/07 22:17:25;;;;;;;;;;;;;;;17.25;33.93;95663.31;10534106;28;1110;-59
2023/04/07 22:22:25;;;;;;;;;;;;;;;17.24;33.82;95667.00;10506931;28;1914;-59
2023/04/07 22:27:26;;;;;;;;;;;;;;;17.24;33.77;95669.63;10525940;28;1512;-59
2023/04/07 22:32:26;;;;;;;;;;;;;;;17.24;33.85;95668.84;10531411;28;1535;-59
2023/04/07 22:37:27;;;;;;;;;;;;;;;17.23;33.85;95665.41;10522408;28;1444;-60
2023/04/07 22:42:28;;;;;;;;;;;;;;;17.23;33.88;95673.28;10527513;28;1910;-59
2023/04/07 22:47:28;;;;;;;;;;;;;;;17.23;33.74;95678.50;10523261;28;1532;-59
2023/04/07 22:52:29;;;;;;;;;;;;;;;17.23;33.67;95680.38;10526098;28;1107;-59
2023/04/07 22:57:30;;;;;;;;;;;;;;;17.21;33.76;95683.22;10530038;28;1368;-59
2023/04/07 23:02:31;;;;;;;;;;;;;;;17.21;33.75;95685.06;10533626;28;1930;-59
2023/04/07 23:07:41;;;;;;;;;;;;;;;17.19;33.73;95682.69;10531988;28;1519;-59
2023/04/07 23:12:42;;;;;;;;;;;;;;;17.20;33.69;95686.91;10531492;28;1512;-59
2023/04/07 23:17:42;;;;;;;;;;;;;;;17.21;33.81;95685.84;10539562;28;1177;-59
2023/04/07 23:22:43;;;;;;;;;;;;;;;17.20;33.60;95694.75;10529675;28;1961;-59
2023/04/07 23:27:44;;;;;;;;;;;;;;;17.20;33.69;95699.19;10530661;28;1440;-59
2023/04/07 23:32:45;;;;;;;;;;;;;;;17.18;33.61;95694.22;10540520;28;1158;-60
2023/04/07 23:37:46;;;;;;;;;;;;;;;17.19;33.57;95697.63;10529915;28;1491;-59
2023/04/07 23:42:47;;;;;;;;;;;;;;;17.18;33.65;95698.66;10526261;28;1966;-59
2023/04/07 23:47:49;;;;;;;;;;;;;;;17.17;33.59;95700.47;10535447;28;1543;-59
2023/04/07 23:52:50;;;;;;;;;;;;;;;17.17;33.64;95697.06;10530531;28;1249;-59
2023/04/07 23:57:51;;;;;;;;;;;;;;;17.17;33.49;95703.09;10529404;28;1511;-60
